sensor_id;sensor_type;location;lat;lon;timestamp;temperature;humidity
57434;DHT22;43277;52.672;6.984;2023-10-08T00:01:34;15.70;99.90
57434;DHT22;43277;52.672;6.984;2023-10-08T00:04:00;15.60;99.90
57434;DHT22;43277;52.672;6.984;2023-10-08T00:06:29;15.40;99.90
57434;DHT22;43277;52.672;6.984;2023-10-08T00:08:55;15.40;99.90
57434;DHT22;43277;52.672;6.984;2023-10-08T00:11:28;15.20;99.90
57434;DHT22;43277;52.672;6.984;2023-10-08T00:13:57;15.10;99.90
57434;DHT22;43277;52.672;6.984;2023-10-08T00:16:22;15.00;99.90
57434;DHT22;43277;52.672;6.984;2023-10-08T00:18:48;14.90;99.90
57434;DHT22;43277;52.672;6.984;2023-10-08T00:21:17;14.80;99.90
57434;DHT22;43277;52.672;6.984;2023-10-08T00:23:43;14.70;99.90
57434;DHT22;43277;52.672;6.984;2023-10-08T00:26:14;14.60;99.90
57434;DHT22;43277;52.672;6.984;2023-10-08T00:28:44;14.60;99.90
57434;DHT22;43277;52.672;6.984;2023-10-08T00:31:14;14.50;99.90
57434;DHT22;43277;52.672;6.984;2023-10-08T00:33:43;14.40;99.90
57434;DHT22;43277;52.672;6.984;2023-10-08T00:36:10;14.30;99.90
57434;DHT22;43277;52.672;6.984;2023-10-08T00:38:48;14.30;99.90
57434;DHT22;43277;52.672;6.984;2023-10-08T00:41:23;14.20;99.90
57434;DHT22;43277;52.672;6.984;2023-10-08T00:43:53;14.20;99.90
57434;DHT22;43277;52.672;6.984;2023-10-08T00:46:21;14.10;99.90
57434;DHT22;43277;52.672;6.984;2023-10-08T00:48:53;14.00;99.90
57434;DHT22;43277;52.672;6.984;2023-10-08T00:51:22;14.00;99.90
57434;DHT22;43277;52.672;6.984;2023-10-08T00:53:52;14.00;99.90
57434;DHT22;43277;52.672;6.984;2023-10-08T00:56:24;14.00;99.90
57434;DHT22;43277;52.672;6.984;2023-10-08T00:58:51;14.00;99.90
57434;DHT22;43277;52.672;6.984;2023-10-08T01:01:19;13.90;99.90
57434;DHT22;43277;52.672;6.984;2023-10-08T01:03:46;13.90;99.90
57434;DHT22;43277;52.672;6.984;2023-10-08T01:06:16;14.00;99.90
57434;DHT22;43277;52.672;6.984;2023-10-08T01:08:44;13.90;99.90
57434;DHT22;43277;52.672;6.984;2023-10-08T01:11:18;13.90;99.90
57434;DHT22;43277;52.672;6.984;2023-10-08T01:13:44;13.90;99.90
57434;DHT22;43277;52.672;6.984;2023-10-08T01:16:12;13.90;99.90
57434;DHT22;43277;52.672;6.984;2023-10-08T01:18:39;13.90;99.90
57434;DHT22;43277;52.672;6.984;2023-10-08T01:21:08;13.90;99.90
57434;DHT22;43277;52.672;6.984;2023-10-08T01:23:52;13.90;99.90
57434;DHT22;43277;52.672;6.984;2023-10-08T01:26:20;13.80;99.90
57434;DHT22;43277;52.672;6.984;2023-10-08T01:28:48;13.80;99.90
57434;DHT22;43277;52.672;6.984;2023-10-08T01:31:13;13.80;99.90
57434;DHT22;43277;52.672;6.984;2023-10-08T01:33:40;13.80;99.90
57434;DHT22;43277;52.672;6.984;2023-10-08T01:36:15;13.80;99.90
57434;DHT22;43277;52.672;6.984;2023-10-08T01:38:40;13.80;99.90
57434;DHT22;43277;52.672;6.984;2023-10-08T01:41:07;13.80;99.90
57434;DHT22;43277;52.672;6.984;2023-10-08T01:43:47;13.70;99.90
57434;DHT22;43277;52.672;6.984;2023-10-08T01:46:12;13.80;99.90
57434;DHT22;43277;52.672;6.984;2023-10-08T01:48:38;13.80;99.90
57434;DHT22;43277;52.672;6.984;2023-10-08T01:51:05;13.80;99.90
57434;DHT22;43277;52.672;6.984;2023-10-08T01:53:37;13.80;99.90
57434;DHT22;43277;52.672;6.984;2023-10-08T01:56:03;13.70;99.90
57434;DHT22;43277;52.672;6.984;2023-10-08T01:58:29;13.70;99.90
57434;DHT22;43277;52.672;6.984;2023-10-08T02:00:55;13.70;99.90
57434;DHT22;43277;52.672;6.984;2023-10-08T02:03:25;13.80;99.90
57434;DHT22;43277;52.672;6.984;2023-10-08T02:05:52;13.70;99.90
57434;DHT22;43277;52.672;6.984;2023-10-08T02:08:24;13.80;99.90
57434;DHT22;43277;52.672;6.984;2023-10-08T02:10:51;13.70;99.90
57434;DHT22;43277;52.672;6.984;2023-10-08T02:13:18;13.70;99.90
57434;DHT22;43277;52.672;6.984;2023-10-08T02:15:44;13.70;99.90
57434;DHT22;43277;52.672;6.984;2023-10-08T02:18:10;13.60;99.90
57434;DHT22;43277;52.672;6.984;2023-10-08T02:20:36;13.60;99.90
57434;DHT22;43277;52.672;6.984;2023-10-08T02:23:01;13.70;99.90
57434;DHT22;43277;52.672;6.984;2023-10-08T02:25:27;13.60;99.90
57434;DHT22;43277;52.672;6.984;2023-10-08T02:27:53;13.70;99.90
57434;DHT22;43277;52.672;6.984;2023-10-08T02:30:18;13.70;99.90
57434;DHT22;43277;52.672;6.984;2023-10-08T02:32:44;13.60;99.90
57434;DHT22;43277;52.672;6.984;2023-10-08T02:35:11;13.70;99.90
57434;DHT22;43277;52.672;6.984;2023-10-08T02:37:38;13.60;99.90
57434;DHT22;43277;52.672;6.984;2023-10-08T02:40:07;13.60;99.90
57434;DHT22;43277;52.672;6.984;2023-10-08T02:42:41;13.60;99.90
57434;DHT22;43277;52.672;6.984;2023-10-08T02:45:10;13.50;99.90
57434;DHT22;43277;52.672;6.984;2023-10-08T02:47:44;13.60;99.90
57434;DHT22;43277;52.672;6.984;2023-10-08T02:50:11;13.60;99.90
57434;DHT22;43277;52.672;6.984;2023-10-08T02:52:36;13.60;99.90
57434;DHT22;43277;52.672;6.984;2023-10-08T02:55:02;13.60;99.90
57434;DHT22;43277;52.672;6.984;2023-10-08T02:57:29;13.60;99.90
57434;DHT22;43277;52.672;6.984;2023-10-08T02:59:55;13.60;99.90
57434;DHT22;43277;52.672;6.984;2023-10-08T03:02:21;13.60;99.90
57434;DHT22;43277;52.672;6.984;2023-10-08T03:04:47;13.60;99.90
57434;DHT22;43277;52.672;6.984;2023-10-08T03:07:13;13.60;99.90
57434;DHT22;43277;52.672;6.984;2023-10-08T03:09:47;13.60;99.90
57434;DHT22;43277;52.672;6.984;2023-10-08T03:12:15;13.60;99.90
57434;DHT22;43277;52.672;6.984;2023-10-08T03:14:40;13.60;99.90
57434;DHT22;43277;52.672;6.984;2023-10-08T03:17:29;13.60;99.90
57434;DHT22;43277;52.672;6.984;2023-10-08T03:19:55;13.60;99.90
57434;DHT22;43277;52.672;6.984;2023-10-08T03:22:43;13.60;99.90
57434;DHT22;43277;52.672;6.984;2023-10-08T03:25:12;13.50;99.90
57434;DHT22;43277;52.672;6.984;2023-10-08T03:27:45;13.50;99.90
57434;DHT22;43277;52.672;6.984;2023-10-08T03:30:10;13.50;99.90
57434;DHT22;43277;52.672;6.984;2023-10-08T03:32:40;13.50;99.90
57434;DHT22;43277;52.672;6.984;2023-10-08T03:35:07;13.50;99.90
57434;DHT22;43277;52.672;6.984;2023-10-08T03:37:36;13.50;99.90
57434;DHT22;43277;52.672;6.984;2023-10-08T03:40:07;13.50;99.90
57434;DHT22;43277;52.672;6.984;2023-10-08T03:42:49;13.50;99.90
57434;DHT22;43277;52.672;6.984;2023-10-08T03:45:15;13.50;99.90
57434;DHT22;43277;52.672;6.984;2023-10-08T03:47:48;13.50;99.90
57434;DHT22;43277;52.672;6.984;2023-10-08T03:50:28;13.50;99.90
57434;DHT22;43277;52.672;6.984;2023-10-08T03:53:06;13.50;99.90
57434;DHT22;43277;52.672;6.984;2023-10-08T03:55:37;13.50;99.90
57434;DHT22;43277;52.672;6.984;2023-10-08T03:58:06;13.40;99.90
57434;DHT22;43277;52.672;6.984;2023-10-08T04:00:35;13.40;99.90
57434;DHT22;43277;52.672;6.984;2023-10-08T04:03:07;13.50;99.90
57434;DHT22;43277;52.672;6.984;2023-10-08T04:05:37;13.50;99.90
57434;DHT22;43277;52.672;6.984;2023-10-08T04:08:21;13.40;99.90
57434;DHT22;43277;52.672;6.984;2023-10-08T04:11:05;13.40;99.90
57434;DHT22;43277;52.672;6.984;2023-10-08T04:13:38;13.40;99.90
57434;DHT22;43277;52.672;6.984;2023-10-08T04:16:10;13.40;99.90
57434;DHT22;43277;52.672;6.984;2023-10-08T04:18:35;13.40;99.90
57434;DHT22;43277;52.672;6.984;2023-10-08T04:21:06;13.40;99.90
57434;DHT22;43277;52.672;6.984;2023-10-08T04:23:39;13.40;99.90
57434;DHT22;43277;52.672;6.984;2023-10-08T04:26:04;13.40;99.90
57434;DHT22;43277;52.672;6.984;2023-10-08T04:28:32;13.40;99.90
57434;DHT22;43277;52.672;6.984;2023-10-08T04:31:01;13.30;99.90
57434;DHT22;43277;52.672;6.984;2023-10-08T04:33:40;13.30;99.90
57434;DHT22;43277;52.672;6.984;2023-10-08T04:36:05;13.30;99.90
57434;DHT22;43277;52.672;6.984;2023-10-08T04:38:33;13.30;99.90
57434;DHT22;43277;52.672;6.984;2023-10-08T04:41:05;13.30;99.90
57434;DHT22;43277;52.672;6.984;2023-10-08T04:43:34;13.30;99.90
57434;DHT22;43277;52.672;6.984;2023-10-08T04:46:03;13.40;99.90
57434;DHT22;43277;52.672;6.984;2023-10-08T04:48:47;13.30;99.90
57434;DHT22;43277;52.672;6.984;2023-10-08T04:51:15;13.30;99.90
57434;DHT22;43277;52.672;6.984;2023-10-08T04:53:41;13.30;99.90
57434;DHT22;43277;52.672;6.984;2023-10-08T04:56:10;13.30;99.90
57434;DHT22;43277;52.672;6.984;2023-10-08T04:58:39;13.30;99.90
57434;DHT22;43277;52.672;6.984;2023-10-08T05:01:06;13.30;99.90
57434;DHT22;43277;52.672;6.984;2023-10-08T05:03:53;13.30;99.90
57434;DHT22;43277;52.672;6.984;2023-10-08T05:06:33;13.30;99.90
57434;DHT22;43277;52.672;6.984;2023-10-08T05:08:59;13.20;99.90
57434;DHT22;43277;52.672;6.984;2023-10-08T05:11:24;13.30;99.90
57434;DHT22;43277;52.672;6.984;2023-10-08T05:14:01;13.30;99.90
57434;DHT22;43277;52.672;6.984;2023-10-08T05:16:42;13.30;99.90
57434;DHT22;43277;52.672;6.984;2023-10-08T05:19:26;13.30;99.90
57434;DHT22;43277;52.672;6.984;2023-10-08T05:22:10;13.30;99.90
57434;DHT22;43277;52.672;6.984;2023-10-08T05:24:58;13.30;99.90
57434;DHT22;43277;52.672;6.984;2023-10-08T05:27:39;13.30;99.90
57434;DHT22;43277;52.672;6.984;2023-10-08T05:32:54;13.30;99.90
57434;DHT22;43277;52.672;6.984;2023-10-08T05:35:35;13.30;99.90
57434;DHT22;43277;52.672;6.984;2023-10-08T05:38:16;13.20;99.90
57434;DHT22;43277;52.672;6.984;2023-10-08T05:40:48;13.20;99.90
57434;DHT22;43277;52.672;6.984;2023-10-08T05:43:32;13.20;99.90
57434;DHT22;43277;52.672;6.984;2023-10-08T05:46:04;13.20;99.90
57434;DHT22;43277;52.672;6.984;2023-10-08T05:48:51;13.20;99.90
57434;DHT22;43277;52.672;6.984;2023-10-08T05:51:32;13.20;99.90
57434;DHT22;43277;52.672;6.984;2023-10-08T05:57:02;13.20;99.90
57434;DHT22;43277;52.672;6.984;2023-10-08T05:59:33;13.20;99.90
57434;DHT22;43277;52.672;6.984;2023-10-08T06:02:18;13.10;99.90
57434;DHT22;43277;52.672;6.984;2023-10-08T06:04:56;13.10;99.90
57434;DHT22;43277;52.672;6.984;2023-10-08T06:07:38;13.10;99.90
57434;DHT22;43277;52.672;6.984;2023-10-08T06:10:14;13.10;99.90
57434;DHT22;43277;52.672;6.984;2023-10-08T06:15:48;13.20;99.90
57434;DHT22;43277;52.672;6.984;2023-10-08T06:18:14;13.20;99.90
57434;DHT22;43277;52.672;6.984;2023-10-08T06:20:43;13.20;99.90
57434;DHT22;43277;52.672;6.984;2023-10-08T06:23:12;13.20;99.90
57434;DHT22;43277;52.672;6.984;2023-10-08T06:25:41;13.20;99.90
57434;DHT22;43277;52.672;6.984;2023-10-08T06:28:16;13.20;99.90
57434;DHT22;43277;52.672;6.984;2023-10-08T06:30:45;13.30;99.90
57434;DHT22;43277;52.672;6.984;2023-10-08T06:33:11;13.30;99.90
57434;DHT22;43277;52.672;6.984;2023-10-08T06:35:36;13.20;99.90
57434;DHT22;43277;52.672;6.984;2023-10-08T06:38:02;13.30;99.90
57434;DHT22;43277;52.672;6.984;2023-10-08T06:40:40;13.30;99.90
57434;DHT22;43277;52.672;6.984;2023-10-08T06:43:05;13.30;99.90
57434;DHT22;43277;52.672;6.984;2023-10-08T06:45:44;13.30;99.90
57434;DHT22;43277;52.672;6.984;2023-10-08T06:48:10;13.40;99.90
57434;DHT22;43277;52.672;6.984;2023-10-08T06:50:43;13.40;99.90
57434;DHT22;43277;52.672;6.984;2023-10-08T06:53:10;13.50;99.90
57434;DHT22;43277;52.672;6.984;2023-10-08T06:55:41;13.40;99.90
57434;DHT22;43277;52.672;6.984;2023-10-08T06:58:07;13.50;99.90
57434;DHT22;43277;52.672;6.984;2023-10-08T07:00:37;13.60;99.90
57434;DHT22;43277;52.672;6.984;2023-10-08T07:03:12;13.60;99.90
57434;DHT22;43277;52.672;6.984;2023-10-08T07:05:42;13.60;99.90
57434;DHT22;43277;52.672;6.984;2023-10-08T07:08:12;13.60;99.90
57434;DHT22;43277;52.672;6.984;2023-10-08T07:10:40;13.60;99.90
57434;DHT22;43277;52.672;6.984;2023-10-08T07:13:11;13.60;99.90
57434;DHT22;43277;52.672;6.984;2023-10-08T07:15:36;13.70;99.90
57434;DHT22;43277;52.672;6.984;2023-10-08T07:18:04;13.70;99.90
57434;DHT22;43277;52.672;6.984;2023-10-08T07:20:44;13.70;99.90
57434;DHT22;43277;52.672;6.984;2023-10-08T07:23:11;13.70;99.90
57434;DHT22;43277;52.672;6.984;2023-10-08T07:26:00;13.70;99.90
57434;DHT22;43277;52.672;6.984;2023-10-08T07:28:43;13.70;99.90
57434;DHT22;43277;52.672;6.984;2023-10-08T07:31:16;13.80;99.90
57434;DHT22;43277;52.672;6.984;2023-10-08T07:33:45;13.80;99.90
57434;DHT22;43277;52.672;6.984;2023-10-08T07:36:11;13.90;99.90
57434;DHT22;43277;52.672;6.984;2023-10-08T07:38:42;13.90;99.90
57434;DHT22;43277;52.672;6.984;2023-10-08T07:41:11;13.90;99.90
57434;DHT22;43277;52.672;6.984;2023-10-08T07:43:40;14.00;99.90
57434;DHT22;43277;52.672;6.984;2023-10-08T07:46:07;14.00;99.90
57434;DHT22;43277;52.672;6.984;2023-10-08T07:48:33;14.00;99.90
57434;DHT22;43277;52.672;6.984;2023-10-08T07:50:58;14.10;99.90
57434;DHT22;43277;52.672;6.984;2023-10-08T07:53:24;14.10;99.90
57434;DHT22;43277;52.672;6.984;2023-10-08T07:55:50;14.20;99.90
57434;DHT22;43277;52.672;6.984;2023-10-08T07:58:16;14.20;99.90
57434;DHT22;43277;52.672;6.984;2023-10-08T08:00:42;14.30;99.90
57434;DHT22;43277;52.672;6.984;2023-10-08T08:03:20;14.30;99.90
57434;DHT22;43277;52.672;6.984;2023-10-08T08:05:46;14.30;99.90
57434;DHT22;43277;52.672;6.984;2023-10-08T08:08:12;14.30;99.90
57434;DHT22;43277;52.672;6.984;2023-10-08T08:10:43;14.30;99.90
57434;DHT22;43277;52.672;6.984;2023-10-08T08:13:09;14.30;99.90
57434;DHT22;43277;52.672;6.984;2023-10-08T08:15:34;14.40;99.90
57434;DHT22;43277;52.672;6.984;2023-10-08T08:18:07;14.50;99.90
57434;DHT22;43277;52.672;6.984;2023-10-08T08:20:34;14.50;99.90
57434;DHT22;43277;52.672;6.984;2023-10-08T08:23:05;14.60;99.90
57434;DHT22;43277;52.672;6.984;2023-10-08T08:25:37;14.60;99.90
57434;DHT22;43277;52.672;6.984;2023-10-08T08:28:11;14.60;99.90
57434;DHT22;43277;52.672;6.984;2023-10-08T08:30:43;14.60;99.90
57434;DHT22;43277;52.672;6.984;2023-10-08T08:33:12;14.60;99.90
57434;DHT22;43277;52.672;6.984;2023-10-08T08:35:38;14.70;99.90
57434;DHT22;43277;52.672;6.984;2023-10-08T08:38:04;14.90;99.90
57434;DHT22;43277;52.672;6.984;2023-10-08T08:40:31;15.00;99.90
57434;DHT22;43277;52.672;6.984;2023-10-08T08:42:58;15.10;99.90
57434;DHT22;43277;52.672;6.984;2023-10-08T08:45:27;15.10;99.90
57434;DHT22;43277;52.672;6.984;2023-10-08T08:47:56;15.20;99.90
57434;DHT22;43277;52.672;6.984;2023-10-08T08:50:22;15.10;99.90
57434;DHT22;43277;52.672;6.984;2023-10-08T08:52:48;15.20;99.90
57434;DHT22;43277;52.672;6.984;2023-10-08T08:55:13;15.20;99.90
57434;DHT22;43277;52.672;6.984;2023-10-08T08:57:43;15.20;99.90
57434;DHT22;43277;52.672;6.984;2023-10-08T09:00:11;15.30;99.90
57434;DHT22;43277;52.672;6.984;2023-10-08T09:02:37;15.30;99.90
57434;DHT22;43277;52.672;6.984;2023-10-08T09:05:02;15.40;99.90
57434;DHT22;43277;52.672;6.984;2023-10-08T09:10:24;15.60;99.90
57434;DHT22;43277;52.672;6.984;2023-10-08T09:12:53;15.70;99.90
57434;DHT22;43277;52.672;6.984;2023-10-08T09:15:19;15.80;99.90
57434;DHT22;43277;52.672;6.984;2023-10-08T09:17:45;15.90;99.90
57434;DHT22;43277;52.672;6.984;2023-10-08T09:20:11;15.90;99.90
57434;DHT22;43277;52.672;6.984;2023-10-08T09:22:37;15.90;99.90
57434;DHT22;43277;52.672;6.984;2023-10-08T09:25:03;16.00;99.90
57434;DHT22;43277;52.672;6.984;2023-10-08T09:27:32;16.10;99.90
57434;DHT22;43277;52.672;6.984;2023-10-08T09:29:58;16.00;99.90
57434;DHT22;43277;52.672;6.984;2023-10-08T09:32:24;16.10;99.90
57434;DHT22;43277;52.672;6.984;2023-10-08T09:34:51;16.10;99.90
57434;DHT22;43277;52.672;6.984;2023-10-08T09:37:17;16.10;99.90
57434;DHT22;43277;52.672;6.984;2023-10-08T09:39:43;16.30;99.90
57434;DHT22;43277;52.672;6.984;2023-10-08T09:42:11;16.40;99.90
57434;DHT22;43277;52.672;6.984;2023-10-08T09:44:37;16.60;99.90
57434;DHT22;43277;52.672;6.984;2023-10-08T09:49:30;16.90;99.90
57434;DHT22;43277;52.672;6.984;2023-10-08T09:52:03;17.00;99.90
57434;DHT22;43277;52.672;6.984;2023-10-08T09:54:31;17.00;99.90
57434;DHT22;43277;52.672;6.984;2023-10-08T09:57:03;17.10;99.90
57434;DHT22;43277;52.672;6.984;2023-10-08T09:59:32;17.10;99.90
57434;DHT22;43277;52.672;6.984;2023-10-08T10:01:58;17.10;99.90
57434;DHT22;43277;52.672;6.984;2023-10-08T10:04:25;17.00;99.90
57434;DHT22;43277;52.672;6.984;2023-10-08T10:06:51;16.90;99.90
57434;DHT22;43277;52.672;6.984;2023-10-08T10:09:20;16.90;99.90
57434;DHT22;43277;52.672;6.984;2023-10-08T10:11:48;17.00;99.90
57434;DHT22;43277;52.672;6.984;2023-10-08T10:14:15;17.10;99.90
57434;DHT22;43277;52.672;6.984;2023-10-08T10:16:43;17.20;99.90
57434;DHT22;43277;52.672;6.984;2023-10-08T10:19:17;17.40;99.90
57434;DHT22;43277;52.672;6.984;2023-10-08T10:21:45;17.50;99.90
57434;DHT22;43277;52.672;6.984;2023-10-08T10:24:28;17.70;99.90
57434;DHT22;43277;52.672;6.984;2023-10-08T10:27:13;17.80;99.90
57434;DHT22;43277;52.672;6.984;2023-10-08T10:29:40;17.90;99.90
57434;DHT22;43277;52.672;6.984;2023-10-08T10:32:10;18.00;99.90
57434;DHT22;43277;52.672;6.984;2023-10-08T10:34:38;18.10;99.90
57434;DHT22;43277;52.672;6.984;2023-10-08T10:37:04;18.10;99.90
57434;DHT22;43277;52.672;6.984;2023-10-08T10:39:51;18.10;99.90
57434;DHT22;43277;52.672;6.984;2023-10-08T10:42:19;18.10;99.90
57434;DHT22;43277;52.672;6.984;2023-10-08T10:44:48;18.20;99.90
57434;DHT22;43277;52.672;6.984;2023-10-08T10:47:14;18.30;99.90
57434;DHT22;43277;52.672;6.984;2023-10-08T10:49:40;18.40;99.90
57434;DHT22;43277;52.672;6.984;2023-10-08T10:52:27;18.40;99.90
57434;DHT22;43277;52.672;6.984;2023-10-08T10:55:03;18.50;99.90
57434;DHT22;43277;52.672;6.984;2023-10-08T10:57:44;18.50;99.90
57434;DHT22;43277;52.672;6.984;2023-10-08T11:00:19;18.50;99.90
57434;DHT22;43277;52.672;6.984;2023-10-08T11:03:01;18.40;99.90
57434;DHT22;43277;52.672;6.984;2023-10-08T11:05:36;18.40;99.90
57434;DHT22;43277;52.672;6.984;2023-10-08T11:08:03;18.40;99.90
57434;DHT22;43277;52.672;6.984;2023-10-08T11:10:32;18.20;99.90
57434;DHT22;43277;52.672;6.984;2023-10-08T11:12:58;18.20;99.90
57434;DHT22;43277;52.672;6.984;2023-10-08T11:15:29;18.20;99.90
57434;DHT22;43277;52.672;6.984;2023-10-08T11:18:12;18.30;99.90
57434;DHT22;43277;52.672;6.984;2023-10-08T11:20:38;18.40;99.90
57434;DHT22;43277;52.672;6.984;2023-10-08T11:23:10;18.50;99.90
57434;DHT22;43277;52.672;6.984;2023-10-08T11:25:52;18.70;99.90
57434;DHT22;43277;52.672;6.984;2023-10-08T11:28:17;18.80;99.90
57434;DHT22;43277;52.672;6.984;2023-10-08T11:30:43;18.90;99.90
57434;DHT22;43277;52.672;6.984;2023-10-08T11:33:12;18.90;99.90
57434;DHT22;43277;52.672;6.984;2023-10-08T11:36:00;18.90;99.90
57434;DHT22;43277;52.672;6.984;2023-10-08T11:38:26;18.80;99.90
57434;DHT22;43277;52.672;6.984;2023-10-08T11:40:55;18.80;99.90
57434;DHT22;43277;52.672;6.984;2023-10-08T11:43:24;18.70;99.90
57434;DHT22;43277;52.672;6.984;2023-10-08T11:45:49;18.70;99.90
57434;DHT22;43277;52.672;6.984;2023-10-08T11:48:15;18.70;99.90
57434;DHT22;43277;52.672;6.984;2023-10-08T11:51:01;18.80;99.90
57434;DHT22;43277;52.672;6.984;2023-10-08T11:53:30;19.00;99.90
57434;DHT22;43277;52.672;6.984;2023-10-08T11:55:56;19.10;99.90
57434;DHT22;43277;52.672;6.984;2023-10-08T11:58:22;19.10;99.90
57434;DHT22;43277;52.672;6.984;2023-10-08T12:01:02;19.00;99.90
57434;DHT22;43277;52.672;6.984;2023-10-08T12:03:29;19.00;99.90
57434;DHT22;43277;52.672;6.984;2023-10-08T12:05:54;19.00;99.90
57434;DHT22;43277;52.672;6.984;2023-10-08T12:08:24;19.00;99.90
57434;DHT22;43277;52.672;6.984;2023-10-08T12:10:55;19.00;99.90
57434;DHT22;43277;52.672;6.984;2023-10-08T12:13:21;19.00;99.90
57434;DHT22;43277;52.672;6.984;2023-10-08T12:15:54;19.00;99.90
57434;DHT22;43277;52.672;6.984;2023-10-08T12:18:33;19.00;99.90
57434;DHT22;43277;52.672;6.984;2023-10-08T12:21:05;19.10;99.90
57434;DHT22;43277;52.672;6.984;2023-10-08T12:23:36;19.20;99.90
57434;DHT22;43277;52.672;6.984;2023-10-08T12:26:03;19.20;99.90
57434;DHT22;43277;52.672;6.984;2023-10-08T12:28:28;19.20;99.90
57434;DHT22;43277;52.672;6.984;2023-10-08T12:30:54;19.20;99.90
57434;DHT22;43277;52.672;6.984;2023-10-08T12:33:24;19.30;99.90
57434;DHT22;43277;52.672;6.984;2023-10-08T12:35:51;19.30;99.90
57434;DHT22;43277;52.672;6.984;2023-10-08T12:38:21;19.50;99.90
57434;DHT22;43277;52.672;6.984;2023-10-08T12:40:48;19.50;99.90
57434;DHT22;43277;52.672;6.984;2023-10-08T12:43:21;19.50;99.90
57434;DHT22;43277;52.672;6.984;2023-10-08T12:45:50;19.50;99.90
57434;DHT22;43277;52.672;6.984;2023-10-08T12:48:23;19.50;99.90
57434;DHT22;43277;52.672;6.984;2023-10-08T12:50:49;19.60;99.90
57434;DHT22;43277;52.672;6.984;2023-10-08T12:53:28;19.60;99.90
57434;DHT22;43277;52.672;6.984;2023-10-08T12:56:06;19.70;99.90
57434;DHT22;43277;52.672;6.984;2023-10-08T12:58:33;19.80;99.90
57434;DHT22;43277;52.672;6.984;2023-10-08T13:01:05;19.90;99.90
57434;DHT22;43277;52.672;6.984;2023-10-08T13:03:32;20.00;99.90
57434;DHT22;43277;52.672;6.984;2023-10-08T13:05:58;20.00;99.90
57434;DHT22;43277;52.672;6.984;2023-10-08T13:08:30;20.00;99.90
57434;DHT22;43277;52.672;6.984;2023-10-08T13:10:55;20.00;99.90
57434;DHT22;43277;52.672;6.984;2023-10-08T13:13:26;20.00;99.90
57434;DHT22;43277;52.672;6.984;2023-10-08T13:15:52;20.00;99.90
57434;DHT22;43277;52.672;6.984;2023-10-08T13:18:21;20.00;99.90
57434;DHT22;43277;52.672;6.984;2023-10-08T13:20:47;20.10;99.90
57434;DHT22;43277;52.672;6.984;2023-10-08T13:23:13;20.10;99.90
57434;DHT22;43277;52.672;6.984;2023-10-08T13:25:39;20.20;99.90
57434;DHT22;43277;52.672;6.984;2023-10-08T13:28:05;20.40;99.90
57434;DHT22;43277;52.672;6.984;2023-10-08T13:30:32;20.40;99.90
57434;DHT22;43277;52.672;6.984;2023-10-08T13:32:58;20.40;99.80
57434;DHT22;43277;52.672;6.984;2023-10-08T13:35:25;20.50;97.60
57434;DHT22;43277;52.672;6.984;2023-10-08T13:37:50;20.30;99.60
57434;DHT22;43277;52.672;6.984;2023-10-08T13:40:17;20.20;98.40
57434;DHT22;43277;52.672;6.984;2023-10-08T13:42:43;20.20;98.60
57434;DHT22;43277;52.672;6.984;2023-10-08T13:45:08;20.20;99.20
57434;DHT22;43277;52.672;6.984;2023-10-08T13:47:34;20.50;97.10
57434;DHT22;43277;52.672;6.984;2023-10-08T13:50:00;20.90;97.10
57434;DHT22;43277;52.672;6.984;2023-10-08T13:52:28;21.50;95.80
57434;DHT22;43277;52.672;6.984;2023-10-08T13:54:54;21.80;96.20
57434;DHT22;43277;52.672;6.984;2023-10-08T13:57:20;21.60;96.10
57434;DHT22;43277;52.672;6.984;2023-10-08T13:59:46;21.50;96.00
57434;DHT22;43277;52.672;6.984;2023-10-08T14:02:12;21.40;95.00
57434;DHT22;43277;52.672;6.984;2023-10-08T14:04:43;21.10;96.10
57434;DHT22;43277;52.672;6.984;2023-10-08T14:07:12;20.70;95.80
57434;DHT22;43277;52.672;6.984;2023-10-08T14:09:42;20.40;95.70
57434;DHT22;43277;52.672;6.984;2023-10-08T14:12:08;20.00;97.10
57434;DHT22;43277;52.672;6.984;2023-10-08T14:14:34;19.80;97.50
57434;DHT22;43277;52.672;6.984;2023-10-08T14:17:00;19.90;95.20
57434;DHT22;43277;52.672;6.984;2023-10-08T14:19:36;20.00;96.60
57434;DHT22;43277;52.672;6.984;2023-10-08T14:22:11;19.90;97.10
57434;DHT22;43277;52.672;6.984;2023-10-08T14:24:39;19.70;97.50
57434;DHT22;43277;52.672;6.984;2023-10-08T14:27:05;19.50;98.50
57434;DHT22;43277;52.672;6.984;2023-10-08T14:29:39;19.30;99.20
57434;DHT22;43277;52.672;6.984;2023-10-08T14:32:15;19.20;99.40
57434;DHT22;43277;52.672;6.984;2023-10-08T14:34:40;19.00;98.00
57434;DHT22;43277;52.672;6.984;2023-10-08T14:37:12;18.80;98.60
57434;DHT22;43277;52.672;6.984;2023-10-08T14:39:56;18.60;98.90
57434;DHT22;43277;52.672;6.984;2023-10-08T14:42:41;18.50;99.50
57434;DHT22;43277;52.672;6.984;2023-10-08T14:45:24;18.30;99.90
57434;DHT22;43277;52.672;6.984;2023-10-08T14:47:55;18.20;99.90
57434;DHT22;43277;52.672;6.984;2023-10-08T14:50:21;18.10;99.90
57434;DHT22;43277;52.672;6.984;2023-10-08T14:52:47;18.10;99.90
57434;DHT22;43277;52.672;6.984;2023-10-08T14:55:13;18.10;99.90
57434;DHT22;43277;52.672;6.984;2023-10-08T14:57:39;18.10;99.90
57434;DHT22;43277;52.672;6.984;2023-10-08T15:00:05;18.10;99.90
57434;DHT22;43277;52.672;6.984;2023-10-08T15:02:31;18.00;99.90
57434;DHT22;43277;52.672;6.984;2023-10-08T15:04:58;18.00;99.90
57434;DHT22;43277;52.672;6.984;2023-10-08T15:07:29;17.90;99.90
57434;DHT22;43277;52.672;6.984;2023-10-08T15:09:54;17.80;99.90
57434;DHT22;43277;52.672;6.984;2023-10-08T15:12:28;17.70;99.90
57434;DHT22;43277;52.672;6.984;2023-10-08T15:14:59;17.60;99.90
57434;DHT22;43277;52.672;6.984;2023-10-08T15:17:24;17.60;99.90
57434;DHT22;43277;52.672;6.984;2023-10-08T15:19:50;17.50;99.90
57434;DHT22;43277;52.672;6.984;2023-10-08T15:22:16;17.40;99.90
57434;DHT22;43277;52.672;6.984;2023-10-08T15:24:42;17.40;99.90
57434;DHT22;43277;52.672;6.984;2023-10-08T15:27:08;17.30;99.90
57434;DHT22;43277;52.672;6.984;2023-10-08T15:29:35;17.30;99.90
57434;DHT22;43277;52.672;6.984;2023-10-08T15:32:02;17.30;99.90
57434;DHT22;43277;52.672;6.984;2023-10-08T15:34:28;17.30;99.90
57434;DHT22;43277;52.672;6.984;2023-10-08T15:36:54;17.30;99.90
57434;DHT22;43277;52.672;6.984;2023-10-08T15:39:19;17.30;99.90
57434;DHT22;43277;52.672;6.984;2023-10-08T15:41:48;17.40;99.90
57434;DHT22;43277;52.672;6.984;2023-10-08T15:44:14;17.40;99.90
57434;DHT22;43277;52.672;6.984;2023-10-08T15:46:39;17.40;99.90
57434;DHT22;43277;52.672;6.984;2023-10-08T15:49:05;17.50;99.90
57434;DHT22;43277;52.672;6.984;2023-10-08T15:51:31;17.60;99.90
57434;DHT22;43277;52.672;6.984;2023-10-08T15:53:59;17.60;99.90
57434;DHT22;43277;52.672;6.984;2023-10-08T15:56:25;17.60;99.90
57434;DHT22;43277;52.672;6.984;2023-10-08T15:58:52;17.70;99.90
57434;DHT22;43277;52.672;6.984;2023-10-08T16:01:17;17.70;99.90